Austin Bergstrom International Airport Austin US
ICAO: KAUS
IATA: AUS
Category: Large
Scheduled Services: Yes

Elevation: 542 ft
TransAlt. 18000 ft.

Airport Communications:
APP/DEP:118.8
ASOS:128.875
ATIS:124.4
CLNC DEL:125.5
GND:121.7
ARNG OPS:36.8
SAN ANGELO RDO:122.55
TWR:121
UNICOM:122.95

KAUS Zoom In..

If you have problems with the map follow the link
https://www.worldairports.se/pages/airport.php?
ICAO=KAUS

Runways:

(A) RW 17L length 9000 ft width 150 ft
ILS 110.50 / hdg 173

(B) RW 17R length 12248 ft width 150 ft
ILS 110.95 / hdg 173

(C) RW 35L length 12248 ft width 150 ft
ILS 110.95 / hdg 353

(D) RW 35R length 9000 ft width 150 ft
ILS 110.50 / hdg 353

Location; KAUS
Day. 18 / Time. 12.14 Zulu
* Altimeter: 30.12
* Temperature: 17° c. 62.6°f.
* Wind from: 300° Speed 03 kn.
Dewpoint: 16° c.
Visibility: 3 Statute Miles.
Clouds: Broken 1500 ft.
Clouds: Overcast 9000 ft.
Conditions: Fog Patches.Conditions: Mist.

KAUS 181214Z 30003KT 3SM BCFG BR BKN015 OVC090 17/16 A3012 RMK AO2 T01720161


Wind From 300°
Speed 03 kn.

 
 
jpsmedia worldairports.se 2020   terms of use